sensor_id;sensor_type;location;lat;lon;timestamp;pressure;altitude;pressure_sealevel;temperature;humidity
71642;BME280;60657;50.122;14.468;2023-06-26T00:02:41;98320.9577631585;;;22.180132753490497;60.31761654077974
71642;BME280;60657;50.122;14.468;2023-06-26T00:05:57;98322.73978494827;;;22.134737163347836;60.332875562676435
71642;BME280;60657;50.122;14.468;2023-06-26T00:09:12;98322.80828910564;;;22.134737163347836;60.53696498054475
71642;BME280;60657;50.122;14.468;2023-06-26T00:12:28;98328.67125525918;;;21.857022964827948;61.84924086366064
71642;BME280;60657;50.122;14.468;2023-06-26T00:15:45;98329.98308645938;;;21.186770428015564;64.67215991454948
71642;BME280;60657;50.122;14.468;2023-06-26T00:19:00;98328.71451553608;;;21.109330891889826;66.05882352941177
71642;BME280;60657;50.122;14.468;2023-06-26T00:22:16;98331.74423290862;;;21.04257267109179;66.48226138704509
71642;BME280;60657;50.122;14.468;2023-06-26T00:25:32;98327.11309780538;;;20.895704585336077;67.35965514610514
71642;BME280;60657;50.122;14.468;2023-06-26T00:28:48;98327.93631655868;;;20.90905622949569;68.18554970626383
71642;BME280;60657;50.122;14.468;2023-06-26T00:32:04;98330.98286287587;;;20.97848477912565;68.13977264057374
71642;BME280;60657;50.122;14.468;2023-06-26T00:35:20;98330.8591445982;;;21.04257267109179;68.17410543984131
71642;BME280;60657;50.122;14.468;2023-06-26T00:38:35;98325.22059456863;;;20.95178149080644;68.28854810406654
71642;BME280;60657;50.122;14.468;2023-06-26T00:41:51;98333.12071211617;;;20.863660639353014;68.64332036316472
71642;BME280;60657;50.122;14.468;2023-06-26T00:45:07;98330.0978674551;;;21.015869382772564;68.11879148546578
71642;BME280;60657;50.122;14.468;2023-06-26T00:48:23;98327.31813454302;;;21.07995727473869;67.72587167162585
71642;BME280;60657;50.122;14.468;2023-06-26T00:51:39;98332.66220529;;;20.828946364538027;68.62233920805676
71642;BME280;60657;50.122;14.468;2023-06-26T00:54:55;98328.38964228572;;;21.005188067444877;67.96429388876173
71642;BME280;60657;50.122;14.468;2023-06-26T00:58:12;98323.07797806768;;;21.02655069810025;67.78118562600137
71642;BME280;60657;50.122;14.468;2023-06-26T01:01:28;98326.28988242088;;;20.901045242999928;68.19890135042344
71642;BME280;60657;50.122;14.468;2023-06-26T01:04:44;98328.05887892902;;;20.911726558327615;67.9967193102922
71642;BME280;60657;50.122;14.468;2023-06-26T01:08:00;98325.03509790926;;;20.98916609445334;67.77737087052719
71642;BME280;60657;50.122;14.468;2023-06-26T01:11:17;98320.19156543918;;;20.71412222476539;68.82261387045091
71642;BME280;60657;50.122;14.468;2023-06-26T01:14:34;98325.0882463691;;;20.59128709849699;68.9847409781033
71642;BME280;60657;50.122;14.468;2023-06-26T01:17:50;98326.67699475643;;;20.404364080262454;69.56649118791485
71642;BME280;60657;50.122;14.468;2023-06-26T01:21:07;98323.6192797463;;;20.551232166018153;69.56458381017777
71642;BME280;60657;50.122;14.468;2023-06-26T01:24:25;98311.71653104875;;;20.778210116731515;68.60898756389716
71642;BME280;60657;50.122;14.468;2023-06-26T01:27:48;98317.2959285903;;;20.8503089951934;68.04631113145648
71642;BME280;60657;50.122;14.468;2023-06-26T01:31:08;98300.31329986214;;;20.660715648126953;69.18310826276036
71642;BME280;60657;50.122;14.468;2023-06-26T01:34:26;98304.79079507517;;;20.57793545433738;69.33569848172732
71642;BME280;60657;50.122;14.468;2023-06-26T01:37:42;98309.20620822709;;;20.556572823682004;69.25940337224384
71642;BME280;60657;50.122;14.468;2023-06-26T01:40:58;98300.43409469954;;;20.60997940032044;68.91607537956817
71642;BME280;60657;50.122;14.468;2023-06-26T01:44:17;98304.79079507517;;;20.615320057984277;68.76729991607537
71642;BME280;60657;50.122;14.468;2023-06-26T01:47:43;98297.47946773263;;;20.73014419775693;68.5880064087892
71642;BME280;60657;50.122;14.468;2023-06-26T01:51:08;98290.28122990867;;;20.812924391546503;68.54604409857328
71642;BME280;60657;50.122;14.468;2023-06-26T01:54:25;98292.62629393829;;;20.86099031052109;68.25421530479896
71642;BME280;60657;50.122;14.468;2023-06-26T01:57:47;98288.18138298634;;;20.69542992294194;68.52124818799115
71642;BME280;60657;50.122;14.468;2023-06-26T02:01:04;98294.09496932248;;;20.32158388647288;69.91935606927596
71642;BME280;60657;50.122;14.468;2023-06-26T02:04:20;98290.19440481931;;;20.02250705729763;71.03707942320898
71642;BME280;60657;50.122;14.468;2023-06-26T02:07:36;98299.21947882025;;;19.90768291752498;71.40901808194094
71642;BME280;60657;50.122;14.468;2023-06-26T02:10:52;98300.43162354425;;;19.790188448920418;71.87632562752728
71642;BME280;60657;50.122;14.468;2023-06-26T02:14:07;98296.2024638983;;;19.750133516441593;72.23300526436256
71642;BME280;60657;50.122;14.468;2023-06-26T02:17:23;98295.8689948677;;;19.816891737239644;72.08232242313268
71642;BME280;60657;50.122;14.468;2023-06-26T02:20:41;98289.28255207214;;;19.597924773022044;72.55344472419318
71642;BME280;60657;50.122;14.468;2023-06-26T02:23:57;98294.22169392876;;;19.811551079575793;72.01747158007171
71642;BME280;60657;50.122;14.468;2023-06-26T02:27:13;98296.03613004806;;;19.814221408407718;71.695124742504
71642;BME280;60657;50.122;14.468;2023-06-26T02:30:29;98296.7484613196;;;19.82223239490348;71.70656900892652
71642;BME280;60657;50.122;14.468;2023-06-26T02:33:44;98296.31290802977;;;19.712748912794694;71.7981231403067
71642;BME280;60657;50.122;14.468;2023-06-26T02:37:00;98301.63955103928;;;19.645990691996644;72.11474784466316
71642;BME280;60657;50.122;14.468;2023-06-26T02:40:16;98300.65164529176;;;19.76081483176928;71.89730678263523
71642;BME280;60657;50.122;14.468;2023-06-26T02:43:32;98305.75872165454;;;19.69138628213932;71.89349202716106
71642;BME280;60657;50.122;14.468;2023-06-26T02:46:48;98299.16808969172;;;19.63263904783703;71.94880598153658
71642;BME280;60657;50.122;14.468;2023-06-26T02:50:04;98299.16808969172;;;19.584573128862445;72.22537575341421
71642;BME280;60657;50.122;14.468;2023-06-26T02:53:20;98297.41124749673;;;19.65667200732433;71.96025024795911
71642;BME280;60657;50.122;14.468;2023-06-26T02:56:36;98299.16808969172;;;19.63263904783703;71.95643549248493
71642;BME280;60657;50.122;14.468;2023-06-26T02:59:52;98297.41124749673;;;19.67536430914778;71.71229114213779
71642;BME280;60657;50.122;14.468;2023-06-26T03:03:08;98298.07051240327;;;19.707408255130844;71.6359960326543
71642;BME280;60657;50.122;14.468;2023-06-26T03:06:23;98302.35403911007;;;19.67536430914778;71.72755016403448
71642;BME280;60657;50.122;14.468;2023-06-26T03:09:39;98295.59924312818;;;19.68604562447547;71.6092927443351
71642;BME280;60657;50.122;14.468;2023-06-26T03:12:55;98296.47790669603;;;19.747463187609668;71.50247959105822
71642;BME280;60657;50.122;14.468;2023-06-26T03:16:11;98298.83924588026;;;19.720759899290456;71.69893949797817
71642;BME280;60657;50.122;14.468;2023-06-26T03:19:26;98299.21947882025;;;19.830243381399256;71.54253452353704
71642;BME280;60657;50.122;14.468;2023-06-26T03:22:42;98300.26567258882;;;19.763485160601206;71.73327229724575
71642;BME280;60657;50.122;14.468;2023-06-26T03:25:58;98296.7484613196;;;19.806210421911956;71.39948119325551
71642;BME280;60657;50.122;14.468;2023-06-26T03:29:14;98300.04315814182;;;19.86495765621423;71.21446555275807
71642;BME280;60657;50.122;14.468;2023-06-26T03:32:30;98300.04315814182;;;19.883649958037694;71.02563515678645
71642;BME280;60657;50.122;14.468;2023-06-26T03:35:45;98294.22169392876;;;19.875638971541917;71.1076523994812
71642;BME280;60657;50.122;14.468;2023-06-26T03:39:01;98296.97081433758;;;19.798199435416194;71.28885328450447
71642;BME280;60657;50.122;14.468;2023-06-26T03:42:17;98294.82128937471;;;19.923704890516518;71.09048599984742
71642;BME280;60657;50.122;14.468;2023-06-26T03:45:33;98289.71089678194;;;19.926375219348444;71.1362630655375
71642;BME280;60657;50.122;14.468;2023-06-26T03:48:48;98289.48459163764;;;20.01716639963378;70.85778591592279
71642;BME280;60657;50.122;14.468;2023-06-26T03:52:04;98291.24500745675;;;19.93705653467613;71.14007782101167
71642;BME280;60657;50.122;14.468;2023-06-26T03:55:21;98283.77668193581;;;19.985122453650717;71.02563515678645
71642;BME280;60657;50.122;14.468;2023-06-26T03:58:37;98294.82128937471;;;20.01449607080187;70.98748760204471
71642;BME280;60657;50.122;14.468;2023-06-26T04:01:52;98286.36028449188;;;19.958419165331506;71.14007782101167
71642;BME280;60657;50.122;14.468;2023-06-26T04:05:08;98286.19054326761;;;19.958419165331506;71.29266803997864
71642;BME280;60657;50.122;14.468;2023-06-26T04:08:24;98290.96091109482;;;20.038529030289155;71.1667811093309
71642;BME280;60657;50.122;14.468;2023-06-26T04:11:40;98288.44856934044;;;20.241474021515216;70.33707179369803
71642;BME280;60657;50.122;14.468;2023-06-26T04:14:56;98295.0353707771;;;20.332265201800567;69.99565117875945
71642;BME280;60657;50.122;14.468;2023-06-26T04:18:11;98289.0963973911;;;20.356298161287867;69.722896162356
71642;BME280;60657;50.122;14.468;2023-06-26T04:21:27;98291.56634131164;;;20.318913557640954;69.66948958571756
71642;BME280;60657;50.122;14.468;2023-06-26T04:24:43;98292.03598881744;;;20.39635309376669;69.37766079194324
71642;BME280;60657;50.122;14.468;2023-06-26T04:27:59;98284.03108231057;;;20.54856183718624;69.10490577553979
71642;BME280;60657;50.122;14.468;2023-06-26T04:31:17;98292.97752137473;;;20.409704737926305;69.82970931563287
71642;BME280;60657;50.122;14.468;2023-06-26T04:34:33;98294.21200871973;;;20.42572671091783;69.83543144884413
71642;BME280;60657;50.122;14.468;2023-06-26T04:37:48;98291.97482923079;;;20.30556191348134;70.20737010757611
71642;BME280;60657;50.122;14.468;2023-06-26T04:41:04;98293.62161753315;;;20.399023422598617;69.82207980468452
71642;BME280;60657;50.122;14.468;2023-06-26T04:44:20;98296.27069199985;;;20.57793545433738;69.11444266422522
71642;BME280;60657;50.122;14.468;2023-06-26T04:47:35;98283.72989078701;;;20.76218814373999;69.09536888685436
71642;BME280;60657;50.122;14.468;2023-06-26T04:50:51;98279.06722193306;;;20.8503089951934;69.13923857480735
71642;BME280;60657;50.122;14.468;2023-06-26T04:54:07;98277.50335575605;;;21.058594644083314;68.91416800183109
71642;BME280;60657;50.122;14.468;2023-06-26T04:57:24;98277.69884323706;;;21.218814373998626;68.64332036316472
71642;BME280;60657;50.122;14.468;2023-06-26T05:00:39;98267.17452999693;;;21.4965285725185;67.49126420996414
71642;BME280;60657;50.122;14.468;2023-06-26T05:03:55;98268.78727622122;;;21.723506523231862;66.68825818265049
71642;BME280;60657;50.122;14.468;2023-06-26T05:07:11;98269.07604583571;;;21.78492408636606;66.77218280308232
71642;BME280;60657;50.122;14.468;2023-06-26T05:10:27;98261.20927864403;;;21.993209735255974;66.28770885786221
71642;BME280;60657;50.122;14.468;2023-06-26T05:13:42;98265.7115499714;;;22.233539330128934;65.82993820096132
71642;BME280;60657;50.122;14.468;2023-06-26T05:16:58;98263.80577000316;;;22.142748149843598;65.66971847104601
71642;BME280;60657;50.122;14.468;2023-06-26T05:20:14;98266.54954390452;;;22.148088807507435;65.79560540169375
71642;BME280;60657;50.122;14.468;2023-06-26T05:23:30;98269.358906843;;;21.899748226138698;66.61959258411535
71642;BME280;60657;50.122;14.468;2023-06-26T05:26:48;98260.79557470091;;;22.10803387502861;65.83947508964675
71642;BME280;60657;50.122;14.468;2023-06-26T05:30:06;98263.66634667796;;;22.206836041809723;65.5972381170367
71642;BME280;60657;50.122;14.468;2023-06-26T05:33:23;98262.28320374571;;;22.289616235599297;65.2882429236286
71642;BME280;60657;50.122;14.468;2023-06-26T05:36:42;98253.28495810876;;;22.343022812237734;65.06126497291524
71642;BME280;60657;50.122;14.468;2023-06-26T05:39:58;98253.24307056691;;;22.182803082322422;65.94247348744945
71642;BME280;60657;50.122;14.468;2023-06-26T05:43:15;98261.53181268791;;;22.249561303120473;65.64682993820097
71642;BME280;60657;50.122;14.468;2023-06-26T05:46:31;98259.32210721797;;;22.428473334859234;65.43892576485847
71642;BME280;60657;50.122;14.468;2023-06-26T05:49:47;98244.56685343126;;;22.45784695201037;65.12993057145037
71642;BME280;60657;50.122;14.468;2023-06-26T05:53:03;98241.37865097533;;;22.62607766842146;64.7866025787747
71642;BME280;60657;50.122;14.468;2023-06-26T05:56:19;98248.09617641402;;;22.607385366597995;64.61684596017395
71642;BME280;60657;50.122;14.468;2023-06-26T05:59:36;98255.72632236837;;;22.79964904249637;64.12855725947966
71642;BME280;60657;50.122;14.468;2023-06-26T06:02:55;98249.90256687123;;;22.71953917753872;64.04654001678493
71642;BME280;60657;50.122;14.468;2023-06-26T06:06:11;98251.77545353747;;;22.911802853437095;64.09994659342337
71642;BME280;60657;50.122;14.468;2023-06-26T06:09:27;98253.41654158739;;;23.11207751583123;62.48630502784772
71642;BME280;60657;50.122;14.468;2023-06-26T06:12:43;98251.62324423726;;;23.216220340276195;62.96505683985656
71642;BME280;60657;50.122;14.468;2023-06-26T06:15:59;98243.75870040902;;;23.413824673838405;62.73807888914321
71642;BME280;60657;50.122;14.468;2023-06-26T06:19:15;98250.09560807612;;;23.333714808880757;62.04760814831769
71642;BME280;60657;50.122;14.468;2023-06-26T06:22:30;98248.80930138778;;;23.547341115434506;62.032349126420996
71642;BME280;60657;50.122;14.468;2023-06-26T06:25:46;98247.39390108659;;;23.750286106660567;60.73342488746471
71642;BME280;60657;50.122;14.468;2023-06-26T06:29:02;98241.26837114288;;;23.95590142671854;60.38246738384069
71642;BME280;60657;50.122;14.468;2023-06-26T06:32:18;98232.25205568272;;;24.26031891355764;58.957656214236664
71642;BME280;60657;50.122;14.468;2023-06-26T06:35:33;98241.19516599826;;;24.118791485465778;59.46883344777599
71642;BME280;60657;50.122;14.468;2023-06-26T06:38:49;98233.46545889191;;;24.457923247119865;57.942931258106356
71642;BME280;60657;50.122;14.468;2023-06-26T06:42:09;98236.21225870114;;;24.773022049286638;58.13366903181506
71642;BME280;60657;50.122;14.468;2023-06-26T06:45:25;98230.21314268319;;;25.0614175631342;56.680247196154724
71642;BME280;60657;50.122;14.468;2023-06-26T06:48:41;98228.39879212539;;;25.165560387579163;56.5371938658732
71642;BME280;60657;50.122;14.468;2023-06-26T06:51:56;98228.27009855438;;;25.456626230258635;54.7099259937438
71642;BME280;60657;50.122;14.468;2023-06-26T06:55:12;98225.36385237394;;;25.50202182040131;54.02708476386664
71642;BME280;60657;50.122;14.468;2023-06-26T06:58:28;98216.0857703718;;;25.771725032425422;53.534981307698175
71642;BME280;60657;50.122;14.468;2023-06-26T07:01:44;98215.07298666022;;;26.04676890211337;53.03906309605554
71642;BME280;60657;50.122;14.468;2023-06-26T07:04:59;98213.71200752695;;;25.76371404592966;53.48348210879683
71642;BME280;60657;50.122;14.468;2023-06-26T07:08:15;98216.43302492132;;;26.06279087510491;52.4706645304036
71642;BME280;60657;50.122;14.468;2023-06-26T07:11:32;98206.55775455227;;;26.26039520866712;52.17120622568093
71642;BME280;60657;50.122;14.468;2023-06-26T07:14:48;98206.36875306748;;;26.220340276188296;51.154573891813534
71642;BME280;60657;50.122;14.468;2023-06-26T07:18:04;98203.37665217542;;;26.05745021744106;51.56466010528725
71642;BME280;60657;50.122;14.468;2023-06-26T07:21:20;98194.96556333725;;;26.206988632028683;51.658121614404514
71642;BME280;60657;50.122;14.468;2023-06-26T07:24:35;98189.80929010572;;;26.660944533455407;50.456473640039675
71642;BME280;60657;50.122;14.468;2023-06-26T07:27:51;98190.68872287353;;;26.954680704966805;49.28152895399405
71642;BME280;60657;50.122;14.468;2023-06-26T07:31:07;98190.85799576718;;;26.73571374074922;49.65918974593728
71642;BME280;60657;50.122;14.468;2023-06-26T07:34:23;98185.81496627977;;;26.62623025864042;49.968184939345385
71642;BME280;60657;50.122;14.468;2023-06-26T07:37:38;98184.9611907232;;;26.91462577248798;49.092698558022434
71642;BME280;60657;50.122;14.468;2023-06-26T07:40:54;98179.88970502598;;;27.173647669184405;48.93057145037003
71642;BME280;60657;50.122;14.468;2023-06-26T07:44:10;98184.19116757723;;;27.229724574654767;48.67879758907454
71642;BME280;60657;50.122;14.468;2023-06-26T07:47:30;98179.38998363334;;;27.283131151293205;48.63111314564736
71642;BME280;60657;50.122;14.468;2023-06-26T07:50:51;98177.65084725706;;;27.45937285420004;48.392690928511485
71642;BME280;60657;50.122;14.468;2023-06-26T07:54:07;98180.18677577325;;;27.686350804913403;47.58205539024949
71642;BME280;60657;50.122;14.468;2023-06-26T07:57:23;98172.75503849603;;;28.078889143205927;46.31555657282368
71642;BME280;60657;50.122;14.468;2023-06-26T08:00:39;98174.80300108704;;;28.401998931868462;44.1182574196994
71642;BME280;60657;50.122;14.468;2023-06-26T08:03:55;98164.89107161017;;;28.634317540245675;44.85831998168917
71642;BME280;60657;50.122;14.468;2023-06-26T08:07:11;98166.52383116011;;;28.231097886625463;44.751506828412296
71642;BME280;60657;50.122;14.468;2023-06-26T08:10:27;98166.41562796257;;;28.396658274204626;44.29945830472267
71642;BME280;60657;50.122;14.468;2023-06-26T08:13:43;98170.06025451291;;;28.695735103379874;44.238422217135884
71642;BME280;60657;50.122;14.468;2023-06-26T08:16:58;98162.82823450351;;;28.989471274891272;43.01197833218891
71642;BME280;60657;50.122;14.468;2023-06-26T08:20:14;98163.58771157773;;;29.221789883268485;43.4983596551461
71642;BME280;60657;50.122;14.468;2023-06-26T08:23:30;98156.74910942402;;;29.443427176317996;42.19562066071565
71642;BME280;60657;50.122;14.468;2023-06-26T08:26:46;98157.5511345518;;;29.288548104066535;42.75638971541924
71642;BME280;60657;50.122;14.468;2023-06-26T08:30:02;98147.89634799675;;;29.51819638361181;42.45120927748531
71642;BME280;60657;50.122;14.468;2023-06-26T08:33:18;98148.13456328865;;;29.43274586099031;42.371099412527656
71642;BME280;60657;50.122;14.468;2023-06-26T08:36:34;98143.00588644722;;;29.667734798199433;42.605706874189366
71642;BME280;60657;50.122;14.468;2023-06-26T08:39:50;98140.89458481828;;;29.851987487602045;42.159380483711
71642;BME280;60657;50.122;14.468;2023-06-26T08:43:06;98133.31617124155;;;29.878690775921257;40.60296025024796
71642;BME280;60657;50.122;14.468;2023-06-26T08:46:22;98141.89281058488;;;30.185778591592282;40.03074692912185
71642;BME280;60657;50.122;14.468;2023-06-26T08:49:41;98134.52603697339;;;30.295262073701082;39.71602960250248
71642;BME280;60657;50.122;14.468;2023-06-26T08:53:04;98124.04564443005;;;30.17242694743267;40.17189288166629
71642;BME280;60657;50.122;14.468;2023-06-26T08:56:31;98128.17955326427;;;30.407415884641793;38.72419317921721
71642;BME280;60657;50.122;14.468;2023-06-26T08:59:51;98128.5072636066;;;30.415426871137555;39.345998321507594
71642;BME280;60657;50.122;14.468;2023-06-26T09:03:07;98123.73766231252;;;30.51956969558252;39.66453040360113
71642;BME280;60657;50.122;14.468;2023-06-26T09:06:26;98124.58885720643;;;30.36736095216297;40.364538033112076
71642;BME280;60657;50.122;14.468;2023-06-26T09:09:42;98123.49362390368;;;30.412756542305644;41.25719081406882
71642;BME280;60657;50.122;14.468;2023-06-26T09:12:58;98122.95985460153;;;30.69314106965743;40.23483634699016
71642;BME280;60657;50.122;14.468;2023-06-26T09:16:14;98108.06812581394;;;31.04562447547113;40.04028381780728
71642;BME280;60657;50.122;14.468;2023-06-26T09:19:30;98111.76452021777;;;31.17380025940338;40.18142977035172
71642;BME280;60657;50.122;14.468;2023-06-26T09:22:47;98104.4303572593;;;30.757228961623554;41.10650797283894
71642;BME280;60657;50.122;14.468;2023-06-26T09:26:04;98107.06027147704;;;31.18181124589914;40.14709697108415
71642;BME280;60657;50.122;14.468;2023-06-26T09:29:21;98095.98549367358;;;31.408789196612503;39.39559014267186
71642;BME280;60657;50.122;14.468;2023-06-26T09:32:37;98092.6820299605;;;31.24856946669719;40.0669871061265
71642;BME280;60657;50.122;14.468;2023-06-26T09:35:53;98085.48168008243;;;31.57434958419165;38.6669718471046
71642;BME280;60657;50.122;14.468;2023-06-26T09:39:09;98080.5031032328;;;31.54764629587244;39.26398107881285
71642;BME280;60657;50.122;14.468;2023-06-26T09:42:24;98077.57054480475;;;31.67582207980469;39.300221255817505
71642;BME280;60657;50.122;14.468;2023-06-26T09:45:40;98069.11993215731;;;32.21255817502099;37.95742732890822
71642;BME280;60657;50.122;14.468;2023-06-26T09:48:58;98069.54918878965;;;32.38345922026399;36.88548104066529
71642;BME280;60657;50.122;14.468;2023-06-26T09:52:17;98066.70527092274;;;32.45021744106202;37.3260852979324
71642;BME280;60657;50.122;14.468;2023-06-26T09:55:34;98065.0771309846;;;32.40482185091936;37.104829480430304
71642;BME280;60657;50.122;14.468;2023-06-26T09:58:50;98052.46886672046;;;32.60242618448157;37.0914778362707
71642;BME280;60657;50.122;14.468;2023-06-26T10:02:07;98051.07333316878;;;33.04036011291676;36.43724727244984
71642;BME280;60657;50.122;14.468;2023-06-26T10:05:23;98040.62552850375;;;32.866788738841834;36.04051270313573
71642;BME280;60657;50.122;14.468;2023-06-26T10:08:39;98041.33285162428;;;32.682536049439236;36.360952162966356
71642;BME280;60657;50.122;14.468;2023-06-26T10:11:57;98039.37314050905;;;33.000305180437934;33.8203250171664
71642;BME280;60657;50.122;14.468;2023-06-26T10:15:17;98031.80275005555;;;32.91752498664836;33.66582742046235
71642;BME280;60657;50.122;14.468;2023-06-26T10:18:36;98024.53925894569;;;33.51834897383078;33.72304875257496
71642;BME280;60657;50.122;14.468;2023-06-26T10:21:55;98017.25482588566;;;33.91355764095522;31.773708705271993
71642;BME280;60657;50.122;14.468;2023-06-26T10:25:16;98012.84083435632;;;34.03105210955978;32.42221713588159
71642;BME280;60657;50.122;14.468;2023-06-26T10:28:34;98017.36911207128;;;33.60379949645228;32.26199740596628
71642;BME280;60657;50.122;14.468;2023-06-26T10:31:56;98010.30220535221;;;33.50499732967117;33.494163424124515
71642;BME280;60657;50.122;14.468;2023-06-26T10:35:15;98007.0752203162;;;33.87083237964447;33.0249485008011
71642;BME280;60657;50.122;14.468;2023-06-26T10:38:47;97997.12414542094;;;33.82810711833372;33.00015259021897
71642;BME280;60657;50.122;14.468;2023-06-26T10:42:08;98006.92958997497;;;33.65186541542687;32.93339436942092
71642;BME280;60657;50.122;14.468;2023-06-26T10:45:28;97999.01563595007;;;33.48630502784772;33.0840772106508
71642;BME280;60657;50.122;14.468;2023-06-26T10:49:00;97999.1989234397;;;34.07377737087053;32.87998779278248
71642;BME280;60657;50.122;14.468;2023-06-26T10:52:17;97992.99575063537;;;34.31677729457542;32.79606317235065
71642;BME280;60657;50.122;14.468;2023-06-26T10:55:33;97995.8808508717;;;33.92156862745098;32.66636148622873
71642;BME280;60657;50.122;14.468;2023-06-26T10:58:49;97992.37308170521;;;32.9468986037995;33.64484626535439
71642;BME280;60657;50.122;14.468;2023-06-26T11:02:05;97991.26318930998;;;32.58640421149005;34.44785229266804
71642;BME280;60657;50.122;14.468;2023-06-26T11:05:24;97988.19349660767;;;32.36743724727245;34.884641794460975
71642;BME280;60657;50.122;14.468;2023-06-26T11:08:44;97978.62995732056;;;32.84275577935455;34.66338597695888
71642;BME280;60657;50.122;14.468;2023-06-26T11:12:00;97983.83421281666;;;32.57839322499427;34.99717708094911
71642;BME280;60657;50.122;14.468;2023-06-26T11:15:17;97983.21477430509;;;32.19653620202945;34.85030899519341
71642;BME280;60657;50.122;14.468;2023-06-26T11:18:34;97983.62400874558;;;32.108415350576024;34.89417868314641
71642;BME280;60657;50.122;14.468;2023-06-26T11:21:50;97980.91408164342;;;31.972228580148013;35.9413290608072
71642;BME280;60657;50.122;14.468;2023-06-26T11:25:09;97979.82597131617;;;31.7879758907454;36.4277103837644
71642;BME280;60657;50.122;14.468;2023-06-26T11:28:26;97978.74079460462;;;32.27397573815519;35.49500267032883
71642;BME280;60657;50.122;14.468;2023-06-26T11:31:42;97971.27962365097;;;32.29533836881056;34.7778286411841
71642;BME280;60657;50.122;14.468;2023-06-26T11:34:58;97967.63530178035;;;32.151140611886774;35.39963378347448
71642;BME280;60657;50.122;14.468;2023-06-26T11:38:14;97958.60139340769;;;32.74128328374151;34.02822919050889
71642;BME280;60657;50.122;14.468;2023-06-26T11:41:30;97960.1662599895;;;32.856107423514146;33.25001907377737
71642;BME280;60657;50.122;14.468;2023-06-26T11:44:50;97964.68210517993;;;33.39551384756237;32.24101625085832
71642;BME280;60657;50.122;14.468;2023-06-26T11:48:08;97946.24634375556;;;33.27267872129397;32.082703898680094
71642;BME280;60657;50.122;14.468;2023-06-26T11:51:23;97955.78706299601;;;33.44357976653697;31.18242160677501
71642;BME280;60657;50.122;14.468;2023-06-26T11:54:43;97948.37160403289;;;33.86549172198062;31.699320973525595